createdAt,value
2023-12-16T00:01:01.202Z,7.47
2023-12-16T00:06:32.343Z,8.45
2023-12-16T00:09:08.282Z,7.72
2023-12-16T00:12:03.214Z,9.10
2023-12-16T00:14:56.272Z,9.20
2023-12-16T00:17:31.660Z,9.45
2023-12-16T00:20:05.990Z,9.32
2023-12-16T00:22:46.181Z,8.60
2023-12-16T00:25:33.719Z,9.10
2023-12-16T00:28:19.767Z,10.55
2023-12-16T00:30:58.005Z,11.18
2023-12-16T00:36:31.173Z,8.32
2023-12-16T00:39:09.488Z,8.85
2023-12-16T00:41:52.895Z,9.27
2023-12-16T00:44:37.689Z,7.63
2023-12-16T00:47:15.297Z,7.32
2023-12-16T00:50:04.926Z,7.90
2023-12-16T00:52:40.345Z,7.75
2023-12-16T00:55:28.859Z,7.25
2023-12-16T00:58:14.378Z,8.95
2023-12-16T01:00:51.309Z,7.63
2023-12-16T01:03:30.683Z,7.57
2023-12-16T01:06:08.339Z,7.07
2023-12-16T01:08:52.875Z,7.70
2023-12-16T01:11:38.794Z,9.18
2023-12-16T01:14:14.493Z,7.68
2023-12-16T01:17:02.363Z,7.68
2023-12-16T01:19:42.333Z,8.15
2023-12-16T01:22:21.314Z,7.07
2023-12-16T01:25:07.558Z,7.53
2023-12-16T01:27:57.184Z,8.02
2023-12-16T01:30:31.127Z,7.90
2023-12-16T01:33:07.699Z,8.20
2023-12-16T01:35:43.720Z,8.15
2023-12-16T01:38:22.925Z,8.25
2023-12-16T01:40:58.261Z,8.68
2023-12-16T01:43:32.701Z,8.98
2023-12-16T01:46:17.746Z,9.18
2023-12-16T01:48:55.905Z,9.32
2023-12-16T01:51:27.208Z,9.82
2023-12-16T01:54:03.005Z,10.27
2023-12-16T01:56:36.931Z,10.43
2023-12-16T01:59:19.746Z,11.23
2023-12-16T02:02:06.902Z,10.00
2023-12-16T02:04:44.011Z,10.00
2023-12-16T02:07:17.143Z,10.85
2023-12-16T02:09:59.757Z,10.65
2023-12-16T02:12:42.990Z,10.52
2023-12-16T02:15:27.695Z,10.43
2023-12-16T02:18:11.006Z,11.30
2023-12-16T02:20:57.535Z,10.93
2023-12-16T02:23:40.120Z,10.65
2023-12-16T02:26:20.641Z,11.05
2023-12-16T02:29:01.078Z,10.73
2023-12-16T02:31:40.570Z,10.23
2023-12-16T02:34:13.057Z,11.43
2023-12-16T02:36:52.021Z,10.10
2023-12-16T02:39:31.862Z,10.32
2023-12-16T02:42:11.364Z,9.98
2023-12-16T02:44:58.431Z,10.18
2023-12-16T02:47:36.566Z,5.78
2023-12-16T02:50:14.542Z,11.77
2023-12-16T02:52:49.683Z,10.75
2023-12-16T02:55:35.930Z,11.13
2023-12-16T02:58:24.139Z,11.00
2023-12-16T03:00:59.602Z,11.45
2023-12-16T03:03:33.284Z,11.98
2023-12-16T03:06:18.632Z,11.13
2023-12-16T03:08:54.634Z,13.15
2023-12-16T03:11:36.014Z,11.20
2023-12-16T03:17:02.696Z,12.32
2023-12-16T03:19:41.312Z,12.60
2023-12-16T03:22:19.251Z,12.45
2023-12-16T03:25:00.343Z,13.13
2023-12-16T03:27:41.220Z,13.50
2023-12-16T03:33:20.025Z,13.35
2023-12-16T03:36:01.774Z,14.25
2023-12-16T03:38:35.343Z,14.98
2023-12-16T03:41:22.617Z,14.45
2023-12-16T03:44:03.208Z,14.27
2023-12-16T03:46:47.445Z,14.02
2023-12-16T03:49:41.051Z,14.00
2023-12-16T03:52:19.706Z,14.30
2023-12-16T03:55:17.030Z,13.85
2023-12-16T03:57:57.465Z,14.18
2023-12-16T04:00:52.399Z,13.88
2023-12-16T04:03:34.206Z,12.98
2023-12-16T04:06:18.214Z,12.15
2023-12-16T04:08:53.758Z,12.55
2023-12-16T04:11:40.314Z,12.65
2023-12-16T04:14:33.982Z,12.07
2023-12-16T04:17:15.552Z,11.80
2023-12-16T04:19:59.822Z,12.75
2023-12-16T04:22:39.285Z,12.90
2023-12-16T04:25:22.288Z,12.38
2023-12-16T04:28:01.946Z,13.13
2023-12-16T04:30:37.032Z,12.07
2023-12-16T04:33:21.536Z,12.18
2023-12-16T04:36:07.675Z,12.05
2023-12-16T04:38:46.425Z,12.43
2023-12-16T04:41:27.011Z,12.45
2023-12-16T04:44:07.200Z,13.15
2023-12-16T04:46:41.888Z,13.23
2023-12-16T04:49:23.593Z,12.18
2023-12-16T04:52:00.884Z,13.07
2023-12-16T04:54:37.444Z,12.48
2023-12-16T04:57:18.805Z,11.68
2023-12-16T05:00:01.510Z,12.18
2023-12-16T05:02:35.682Z,12.55
2023-12-16T05:05:16.140Z,13.07
2023-12-16T05:07:55.627Z,13.00
2023-12-16T05:10:35.064Z,13.25
2023-12-16T05:13:13.294Z,13.50
2023-12-16T05:15:57.302Z,13.50
2023-12-16T05:18:29.540Z,13.98
2023-12-16T05:21:20.586Z,15.02
2023-12-16T05:23:59.663Z,17.63
2023-12-16T05:26:41.938Z,17.65
2023-12-16T05:29:18.354Z,18.83
2023-12-16T05:31:58.916Z,20.77
2023-12-16T05:34:43.602Z,21.23
2023-12-16T05:37:26.195Z,19.88
2023-12-16T05:40:06.120Z,18.92
2023-12-16T05:42:44.847Z,18.50
2023-12-16T05:45:21.977Z,16.73
2023-12-16T05:47:55.275Z,17.48
2023-12-16T05:50:30.238Z,15.73
2023-12-16T05:53:10.166Z,15.27
2023-12-16T05:55:50.529Z,15.32
2023-12-16T05:58:30.615Z,18.67
2023-12-16T06:01:04.236Z,23.50
2023-12-16T06:03:41.437Z,30.23
2023-12-16T06:06:18.909Z,24.27
2023-12-16T06:08:59.780Z,23.27
2023-12-16T06:11:42.618Z,17.80
2023-12-16T06:14:28.915Z,15.15
2023-12-16T06:17:06.479Z,17.67
2023-12-16T06:19:47.027Z,16.42
2023-12-16T06:22:30.823Z,17.38
2023-12-16T06:25:07.124Z,15.52
2023-12-16T06:27:51.003Z,17.73
2023-12-16T06:30:30.446Z,20.58
2023-12-16T06:33:31.423Z,19.95
2023-12-16T06:36:04.759Z,23.52
2023-12-16T06:38:49.455Z,25.20
2023-12-16T06:41:42.144Z,30.73
2023-12-16T06:44:20.974Z,30.40
2023-12-16T06:47:02.669Z,28.48
2023-12-16T06:49:45.483Z,26.15
2023-12-16T06:52:25.758Z,23.25
2023-12-16T06:55:02.287Z,24.75
2023-12-16T06:57:53.694Z,18.83
2023-12-16T07:00:41.633Z,18.75
2023-12-16T07:03:19.128Z,16.05
2023-12-16T07:05:52.904Z,17.27
2023-12-16T07:08:37.840Z,16.92
2023-12-16T07:11:15.411Z,22.02
2023-12-16T07:13:56.091Z,19.25
2023-12-16T07:16:36.422Z,19.80
2023-12-16T07:19:15.808Z,18.70
2023-12-16T07:21:49.979Z,18.83
2023-12-16T07:24:30.875Z,18.77
2023-12-16T07:27:11.165Z,16.55
2023-12-16T07:30:03.013Z,18.65
2023-12-16T07:32:38.860Z,18.83
2023-12-16T07:35:21.007Z,18.23
2023-12-16T07:37:56.257Z,18.88
2023-12-16T07:40:34.039Z,19.58
2023-12-16T07:43:21.052Z,19.45
2023-12-16T07:46:04.692Z,17.45
2023-12-16T07:48:40.954Z,19.08
2023-12-16T07:51:30.842Z,19.02
2023-12-16T07:54:08.487Z,20.25
2023-12-16T07:56:49.049Z,24.48
2023-12-16T07:59:35.384Z,23.60
2023-12-16T08:02:18.417Z,20.23
2023-12-16T08:04:56.449Z,18.35
2023-12-16T08:07:34.889Z,18.42
2023-12-16T08:10:18.981Z,18.27
2023-12-16T08:12:53.409Z,18.10
2023-12-16T08:15:32.509Z,16.45
2023-12-16T08:18:11.459Z,20.05
2023-12-16T08:20:47.572Z,22.42
2023-12-16T08:23:27.320Z,25.77
2023-12-16T08:26:08.593Z,25.95
2023-12-16T08:28:53.043Z,23.60
2023-12-16T08:34:27.939Z,18.27
2023-12-16T08:37:09.246Z,17.45
2023-12-16T08:39:51.849Z,19.23
2023-12-16T08:42:29.013Z,17.23
2023-12-16T08:45:01.586Z,18.08
2023-12-16T08:47:51.287Z,20.45
2023-12-16T08:50:31.651Z,19.88
2023-12-16T08:53:16.098Z,19.52
2023-12-16T08:55:54.295Z,20.65
2023-12-16T08:58:32.373Z,15.73
2023-12-16T09:01:12.103Z,18.90
2023-12-16T09:03:53.743Z,14.80
2023-12-16T09:06:42.186Z,15.63
2023-12-16T09:09:20.872Z,14.52
2023-12-16T09:11:54.899Z,14.95
2023-12-16T09:14:39.642Z,15.27
2023-12-16T09:17:11.747Z,13.90
2023-12-16T09:19:46.392Z,15.52
2023-12-16T09:22:41.455Z,14.80
2023-12-16T09:25:16.182Z,14.95
2023-12-16T09:27:51.993Z,14.57
2023-12-16T09:30:28.230Z,14.15
2023-12-16T09:33:08.123Z,15.98
2023-12-16T09:35:59.538Z,16.33
2023-12-16T09:38:46.167Z,15.80
2023-12-16T09:41:31.121Z,14.73
2023-12-16T09:44:17.571Z,15.55
2023-12-16T09:46:54.042Z,16.10
2023-12-16T09:49:32.385Z,15.93
2023-12-16T09:52:10.831Z,15.63
2023-12-16T09:55:02.996Z,17.35
2023-12-16T09:57:41.347Z,15.13
2023-12-16T10:00:21.093Z,14.95
2023-12-16T10:02:54.576Z,14.90
2023-12-16T10:05:38.174Z,15.13
2023-12-16T10:08:18.473Z,19.85
2023-12-16T10:11:13.512Z,15.52
2023-12-16T10:14:09.154Z,15.68
2023-12-16T10:16:59.097Z,15.57
2023-12-16T10:19:37.905Z,16.92
2023-12-16T10:22:20.905Z,15.07
2023-12-16T10:24:59.172Z,16.52
2023-12-16T10:27:38.418Z,13.27
2023-12-16T10:30:22.674Z,15.73
2023-12-16T10:33:08.102Z,15.75
2023-12-16T10:35:48.215Z,23.55
2023-12-16T10:38:29.136Z,16.98
2023-12-16T10:41:07.247Z,15.68
2023-12-16T10:43:58.212Z,16.38
2023-12-16T10:46:45.160Z,16.75
2023-12-16T10:49:27.574Z,18.05
2023-12-16T10:52:24.405Z,19.38
2023-12-16T10:55:13.143Z,18.52
2023-12-16T10:58:18.589Z,17.58
2023-12-16T11:01:18.882Z,15.77
2023-12-16T11:04:22.680Z,17.83
2023-12-16T11:07:13.692Z,18.52
2023-12-16T11:12:24.901Z,20.00
2023-12-16T11:14:59.347Z,20.55
2023-12-16T11:17:39.361Z,20.55
2023-12-16T11:20:17.941Z,18.73
2023-12-16T11:22:53.449Z,16.77
2023-12-16T11:25:35.325Z,17.67
2023-12-16T11:28:18.240Z,20.83
2023-12-16T11:30:57.454Z,19.10
2023-12-16T11:33:51.899Z,18.35
2023-12-16T11:37:01.886Z,21.65
2023-12-16T11:39:53.859Z,17.00
2023-12-16T11:42:56.791Z,15.40
2023-12-16T11:48:24.926Z,67.45
2023-12-16T11:51:11.781Z,18.92
2023-12-16T11:53:50.822Z,22.30
2023-12-16T11:56:30.423Z,23.27
2023-12-16T11:59:01.770Z,17.00
2023-12-16T12:02:09.602Z,15.32
2023-12-16T12:04:45.502Z,14.95
2023-12-16T12:07:29.408Z,18.92
2023-12-16T12:12:54.475Z,17.85
2023-12-16T12:15:30.324Z,16.48
2023-12-16T12:18:07.758Z,18.23
2023-12-16T12:20:45.617Z,16.80
2023-12-16T12:23:38.447Z,15.20
2023-12-16T12:26:18.913Z,16.17
2023-12-16T12:29:16.157Z,24.63
2023-12-16T12:32:05.086Z,20.92
2023-12-16T12:34:45.373Z,15.85
2023-12-16T12:37:26.635Z,17.02
2023-12-16T12:43:04.469Z,15.60
2023-12-16T12:45:44.049Z,18.48
2023-12-16T12:48:21.305Z,16.42
2023-12-16T12:51:13.397Z,18.58
2023-12-16T12:53:51.501Z,17.10
2023-12-16T12:56:37.205Z,16.60
2023-12-16T12:59:57.687Z,18.02
2023-12-16T13:02:35.003Z,21.85
2023-12-16T13:05:21.865Z,21.30
2023-12-16T13:07:56.309Z,20.08
2023-12-16T13:10:37.084Z,21.50
2023-12-16T13:13:20.326Z,20.95
2023-12-16T13:15:59.291Z,20.13
2023-12-16T13:18:48.079Z,18.10
2023-12-16T13:21:29.049Z,17.83
2023-12-16T13:24:00.226Z,24.02
2023-12-16T13:26:54.514Z,15.63
2023-12-16T13:29:32.925Z,20.75
2023-12-16T13:32:11.957Z,17.95
2023-12-16T13:34:45.254Z,18.23
2023-12-16T13:37:28.880Z,15.52
2023-12-16T13:40:15.083Z,14.20
2023-12-16T13:43:08.635Z,16.30
2023-12-16T13:45:50.293Z,16.77
2023-12-16T13:48:24.031Z,15.75
2023-12-16T13:50:58.409Z,15.95
2023-12-16T13:53:33.619Z,20.13
2023-12-16T13:56:25.617Z,17.58
2023-12-16T13:59:15.047Z,18.58
2023-12-16T14:02:08.944Z,17.88
2023-12-16T14:05:10.452Z,17.50
2023-12-16T14:07:51.506Z,17.85
2023-12-16T14:10:31.190Z,17.05
2023-12-16T14:13:12.282Z,19.83
2023-12-16T14:15:57.970Z,20.58
2023-12-16T14:18:42.987Z,19.80
2023-12-16T14:21:31.107Z,22.58
2023-12-16T14:24:09.178Z,26.73
2023-12-16T14:26:49.552Z,27.15
2023-12-16T14:29:36.404Z,27.70
2023-12-16T14:32:24.257Z,25.92
2023-12-16T14:35:02.439Z,30.00
2023-12-16T14:37:54.697Z,32.75
2023-12-16T14:40:39.825Z,36.15
2023-12-16T14:43:24.145Z,30.90
2023-12-16T14:46:20.739Z,32.03
2023-12-16T14:48:59.740Z,32.22
2023-12-16T14:51:47.226Z,30.38
2023-12-16T14:54:24.226Z,38.13
2023-12-16T14:57:13.053Z,35.17
2023-12-16T14:59:58.274Z,34.20
2023-12-16T15:02:30.773Z,33.42
2023-12-16T15:05:05.398Z,36.58
2023-12-16T15:07:41.531Z,35.38
2023-12-16T15:10:21.220Z,35.97
2023-12-16T15:13:13.935Z,37.67
2023-12-16T15:16:04.732Z,35.72
2023-12-16T15:21:20.510Z,30.17
2023-12-16T15:23:57.147Z,29.90
2023-12-16T15:26:38.103Z,28.85
2023-12-16T15:29:18.405Z,32.15
2023-12-16T15:31:59.064Z,33.38
2023-12-16T15:34:48.555Z,29.95
2023-12-16T15:37:32.520Z,30.25
2023-12-16T15:40:14.950Z,36.92
2023-12-16T15:42:59.742Z,33.08
2023-12-16T15:45:37.676Z,35.63
2023-12-16T15:48:22.652Z,33.95
2023-12-16T15:51:05.779Z,27.25
2023-12-16T15:53:49.997Z,24.70
2023-12-16T15:56:20.853Z,22.10
2023-12-16T15:59:06.102Z,20.02
2023-12-16T16:01:49.430Z,20.27
2023-12-16T16:04:25.228Z,21.27
2023-12-16T16:07:08.761Z,19.40
2023-12-16T16:09:48.604Z,20.23
2023-12-16T16:12:29.146Z,19.63
2023-12-16T16:15:30.664Z,20.80
2023-12-16T16:18:09.140Z,22.58
2023-12-16T16:20:45.234Z,22.80
2023-12-16T16:23:17.538Z,23.48
2023-12-16T16:25:55.917Z,23.30
2023-12-16T16:28:31.004Z,22.25
2023-12-16T16:31:26.234Z,25.88
2023-12-16T16:34:04.363Z,23.63
2023-12-16T16:36:35.704Z,25.42
2023-12-16T16:39:15.391Z,27.92
2023-12-16T16:42:01.831Z,33.50
2023-12-16T16:44:46.661Z,39.67
2023-12-16T16:47:41.285Z,53.65
2023-12-16T16:50:29.822Z,48.38
2023-12-16T16:53:09.805Z,48.05
2023-12-16T16:55:48.168Z,47.42
2023-12-16T16:58:25.105Z,46.92
2023-12-16T17:01:07.225Z,53.80
2023-12-16T17:03:41.430Z,50.47
2023-12-16T17:06:12.084Z,55.25
2023-12-16T17:08:50.187Z,50.30
2023-12-16T17:11:27.503Z,41.03
2023-12-16T17:14:09.514Z,41.97
2023-12-16T17:16:55.629Z,44.42
2023-12-16T17:19:39.660Z,41.95
2023-12-16T17:22:11.433Z,43.38
2023-12-16T17:24:44.929Z,41.75
2023-12-16T17:27:22.940Z,37.60
2023-12-16T17:30:03.031Z,41.42
2023-12-16T17:32:39.354Z,41.40
2023-12-16T17:38:09.095Z,39.13
2023-12-16T17:40:48.571Z,35.92
2023-12-16T17:43:35.063Z,38.92
2023-12-16T17:46:21.864Z,40.95
2023-12-16T17:49:20.515Z,37.25
2023-12-16T17:52:14.884Z,37.95
2023-12-16T17:54:52.925Z,35.90
2023-12-16T17:57:38.865Z,36.78
2023-12-16T18:00:22.543Z,35.30
2023-12-16T18:02:56.268Z,36.22
2023-12-16T18:05:43.932Z,38.22
2023-12-16T18:08:29.467Z,36.10
2023-12-16T18:11:11.336Z,35.55
2023-12-16T18:13:52.952Z,38.60
2023-12-16T18:16:34.895Z,37.05
2023-12-16T18:19:15.480Z,37.92
2023-12-16T18:21:50.220Z,51.33
2023-12-16T18:24:27.910Z,48.35
2023-12-16T18:27:06.149Z,58.65
2023-12-16T18:29:41.368Z,59.45
2023-12-16T18:32:18.638Z,63.67
2023-12-16T18:34:54.170Z,80.93
2023-12-16T18:37:35.556Z,87.70
2023-12-16T18:40:31.494Z,86.38
2023-12-16T18:43:18.046Z,65.70
2023-12-16T18:45:55.442Z,68.40
2023-12-16T18:48:35.124Z,63.22
2023-12-16T18:51:14.535Z,59.60
2023-12-16T18:53:52.413Z,55.63
2023-12-16T18:56:40.709Z,59.80
2023-12-16T18:59:18.172Z,59.47
2023-12-16T19:01:52.062Z,50.70
2023-12-16T19:04:26.230Z,53.40
2023-12-16T19:07:00.808Z,49.88
2023-12-16T19:09:43.507Z,54.25
2023-12-16T19:12:29.648Z,54.53
2023-12-16T19:15:14.897Z,54.67
2023-12-16T19:17:51.197Z,64.55
2023-12-16T19:20:25.256Z,64.20
2023-12-16T19:22:58.996Z,71.03
2023-12-16T19:25:42.723Z,70.93
2023-12-16T19:28:21.777Z,66.25
2023-12-16T19:31:05.582Z,62.47
2023-12-16T19:33:47.530Z,63.17
2023-12-16T19:36:29.921Z,61.67
2023-12-16T19:39:03.577Z,59.20
2023-12-16T19:41:35.196Z,63.47
2023-12-16T19:44:21.978Z,63.65
2023-12-16T19:47:12.653Z,64.93
2023-12-16T19:49:54.930Z,65.32
2023-12-16T19:52:45.296Z,64.57
2023-12-16T19:55:19.816Z,65.30
2023-12-16T19:57:57.581Z,65.50
2023-12-16T20:00:52.762Z,64.32
2023-12-16T20:03:33.312Z,63.65
2023-12-16T20:06:08.026Z,62.17
2023-12-16T20:08:59.866Z,60.20
2023-12-16T20:11:34.541Z,57.00
2023-12-16T20:14:11.336Z,56.95
2023-12-16T20:16:58.734Z,53.83
2023-12-16T20:19:37.788Z,62.25
2023-12-16T20:22:19.339Z,61.28
2023-12-16T20:24:53.770Z,62.70
2023-12-16T20:27:30.956Z,60.28
2023-12-16T20:30:04.191Z,56.63
2023-12-16T20:32:37.479Z,57.00
2023-12-16T20:35:12.705Z,56.20
2023-12-16T20:37:57.902Z,62.53
2023-12-16T20:40:40.910Z,68.05
2023-12-16T20:43:18.269Z,63.60
2023-12-16T20:45:56.195Z,61.95
2023-12-16T20:48:45.038Z,65.35
2023-12-16T20:51:20.682Z,63.85
2023-12-16T20:54:00.119Z,62.40
2023-12-16T20:56:44.882Z,59.42
2023-12-16T20:59:23.155Z,59.30
2023-12-16T21:02:02.116Z,61.60
2023-12-16T21:04:40.773Z,66.40
2023-12-16T21:07:22.344Z,61.30
2023-12-16T21:09:56.911Z,54.88
2023-12-16T21:12:35.140Z,49.13
2023-12-16T21:15:19.443Z,54.78
2023-12-16T21:18:22.291Z,50.30
2023-12-16T21:21:11.224Z,49.17
2023-12-16T21:23:50.826Z,46.33
2023-12-16T21:26:28.843Z,46.67
2023-12-16T21:29:06.231Z,48.55
2023-12-16T21:31:37.388Z,55.70
2023-12-16T21:34:14.730Z,58.22
2023-12-16T21:37:02.901Z,55.85
2023-12-16T21:39:37.964Z,46.22
2023-12-16T21:42:17.432Z,44.85
2023-12-16T21:44:57.259Z,46.00
2023-12-16T21:47:37.532Z,42.10
2023-12-16T21:50:15.527Z,43.35
2023-12-16T21:52:53.421Z,42.78
2023-12-16T21:55:28.184Z,46.38
2023-12-16T21:58:10.203Z,47.38
2023-12-16T22:00:50.049Z,50.58
2023-12-16T22:03:30.381Z,54.05
2023-12-16T22:06:03.997Z,50.08
2023-12-16T22:08:53.079Z,47.42
2023-12-16T22:11:38.121Z,47.83
2023-12-16T22:14:16.570Z,45.72
2023-12-16T22:16:54.547Z,47.85
2023-12-16T22:19:33.153Z,49.40
2023-12-16T22:22:11.119Z,50.85
2023-12-16T22:24:59.781Z,48.90
2023-12-16T22:27:36.436Z,49.30
2023-12-16T22:30:13.260Z,50.97
2023-12-16T22:32:59.658Z,50.95
2023-12-16T22:35:39.523Z,52.30
2023-12-16T22:38:19.518Z,50.50
2023-12-16T22:40:55.856Z,52.95
2023-12-16T22:43:32.835Z,53.20
2023-12-16T22:46:09.987Z,47.92
2023-12-16T22:48:49.401Z,50.47
2023-12-16T22:51:25.991Z,52.22
2023-12-16T22:54:04.028Z,51.10
2023-12-16T22:56:41.174Z,52.05
2023-12-16T22:59:20.401Z,48.85
2023-12-16T23:01:57.770Z,50.88
2023-12-16T23:04:40.534Z,51.63
2023-12-16T23:07:33.561Z,49.85
2023-12-16T23:10:24.632Z,52.10
2023-12-16T23:13:05.556Z,52.72
2023-12-16T23:15:41.733Z,58.75
2023-12-16T23:18:13.324Z,55.53
2023-12-16T23:20:55.347Z,55.42
2023-12-16T23:23:36.071Z,53.38
2023-12-16T23:26:12.871Z,58.35
2023-12-16T23:28:51.526Z,57.70
2023-12-16T23:31:30.280Z,55.38
2023-12-16T23:34:10.887Z,52.72
2023-12-16T23:36:48.532Z,56.60
2023-12-16T23:39:22.563Z,58.38
2023-12-16T23:42:03.345Z,58.58
2023-12-16T23:44:51.621Z,62.22
2023-12-16T23:47:31.702Z,64.75
2023-12-16T23:50:13.995Z,62.87
2023-12-16T23:52:52.686Z,62.72
2023-12-16T23:55:40.835Z,63.85
2023-12-16T23:58:21.713Z,70.22
